Time;durP1;ratioP1;P1;durP2;ratioP2;P2;SDS_P1;SDS_P2;PMS_P1;PMS_P2;Temp;Humidity;BMP_temperature;BMP_pressure;BME280_temperature;BME280_humidity;BME280_pressure;Samples;Min_cycle;Max_cycle;Signal;HPM_P1;HPM_P2
2022/03/25 00:01:43;;;;;;;2.45;1.52;;;;;;;22.18;26.19;100038.72;5112173;28;20530;-51
2022/03/25 00:04:09;;;;;;;2.22;1.50;;;;;;;22.16;26.27;100033.53;5112217;28;20128;-49
2022/03/25 00:06:35;;;;;;;2.78;1.58;;;;;;;22.16;26.16;100033.53;5112307;28;20400;-51
2022/03/25 00:09:01;;;;;;;2.70;1.63;;;;;;;22.12;26.18;100034.63;5112306;28;20181;-48
2022/03/25 00:11:26;;;;;;;2.55;1.70;;;;;;;22.13;26.03;100041.78;5111910;28;20043;-48
2022/03/25 00:13:51;;;;;;;2.45;1.67;;;;;;;22.14;26.16;100037.84;5111975;28;20117;-46
2022/03/25 00:16:17;;;;;;;2.42;1.60;;;;;;;22.12;26.29;100035.41;5111963;28;20048;-50
2022/03/25 00:18:42;;;;;;;2.35;1.40;;;;;;;22.12;25.93;100029.84;5111958;28;20039;-51
2022/03/25 00:21:08;;;;;;;2.55;1.58;;;;;;;22.15;26.19;100036.69;5111720;28;20058;-52
2022/03/25 00:23:33;;;;;;;2.22;1.52;;;;;;;22.13;26.26;100030.66;5111875;28;20130;-58
2022/03/25 00:25:59;;;;;;;1.92;1.30;;;;;;;22.14;25.96;100032.25;5111884;28;20067;-59
2022/03/25 00:28:24;;;;;;;2.42;1.60;;;;;;;22.15;26.15;100033.91;5111931;28;20071;-59
2022/03/25 00:30:50;;;;;;;2.17;1.50;;;;;;;22.11;25.95;100031.03;5111869;28;20039;-58
2022/03/25 00:33:16;;;;;;;2.78;1.70;;;;;;;22.10;26.23;100032.22;5111771;28;20145;-52
2022/03/25 00:35:42;;;;;;;2.60;1.60;;;;;;;22.12;26.17;100035.41;5111231;28;20036;-50
2022/03/25 00:38:08;;;;;;;2.22;1.52;;;;;;;22.15;25.96;100036.69;5111375;28;20531;-47
2022/03/25 00:40:34;;;;;;;2.50;1.70;;;;;;;22.12;26.03;100032.63;5111578;28;20055;-47
2022/03/25 00:43:00;;;;;;;2.42;1.60;;;;;;;22.16;26.20;100043.88;5111317;28;20043;-47
2022/03/25 00:45:28;;;;;;;2.40;1.50;;;;;;;22.15;25.90;100033.91;5111359;28;21398;-48
2022/03/25 00:47:59;;;;;;;3.03;1.70;;;;;;;22.17;26.02;100034.31;5118197;28;20043;-49
2022/03/25 00:50:25;;;;;;;2.72;1.70;;;;;;;22.16;26.16;100036.31;5131934;28;20105;-46
2022/03/25 00:52:50;;;;;;;2.65;1.60;;;;;;;22.18;25.84;100035.94;5131593;27;20040;-51
2022/03/25 00:55:16;;;;;;;2.50;1.60;;;;;;;22.20;26.16;100030.78;5131793;28;20388;-47
2022/03/25 00:57:42;;;;;;;2.22;1.52;;;;;;;22.17;26.03;100034.31;5131871;28;20039;-47
2022/03/25 01:00:08;;;;;;;2.35;1.50;;;;;;;22.16;25.94;100027.16;5131788;28;20546;-48
2022/03/25 01:02:34;;;;;;;2.72;1.60;;;;;;;22.19;25.88;100027.19;5131685;28;20070;-47
2022/03/25 01:05:01;;;;;;;3.25;1.80;;;;;;;22.15;25.90;100026.34;5131386;28;20462;-48
2022/03/25 01:07:27;;;;;;;2.95;1.50;;;;;;;22.18;25.87;100024.78;5131538;28;20309;-47
2022/03/25 01:09:52;;;;;;;2.08;1.55;;;;;;;22.17;26.16;100028.75;5131507;28;20130;-48
2022/03/25 01:12:21;;;;;;;2.65;1.77;;;;;;;22.17;25.99;100026.78;5131419;28;20134;-46
2022/03/25 01:14:47;;;;;;;2.40;1.52;;;;;;;22.20;26.17;100025.22;5131413;28;20043;-49
2022/03/25 01:17:12;;;;;;;2.40;1.70;;;;;;;22.22;26.15;100025.66;5131362;28;20414;-46
2022/03/25 01:19:38;;;;;;;2.60;1.60;;;;;;;22.21;25.96;100026.81;5131499;28;20039;-46
2022/03/25 01:22:04;;;;;;;2.83;1.73;;;;;;;22.19;25.91;100021.63;5131247;28;20039;-51
2022/03/25 01:24:30;;;;;;;2.53;1.70;;;;;;;22.20;25.97;100025.22;5131402;28;20039;-47
2022/03/25 01:26:56;;;;;;;2.42;1.60;;;;;;;22.21;25.96;100019.25;5131378;28;20494;-51
2022/03/25 01:29:21;;;;;;;2.67;1.70;;;;;;;22.22;25.74;100014.53;5131360;28;20070;-53
2022/03/25 01:31:48;;;;;;;2.47;1.52;;;;;;;22.20;25.83;100019.63;5131231;28;20130;-47
2022/03/25 01:34:15;;;;;;;2.40;1.55;;;;;;;22.18;25.82;100010.84;5131123;28;20129;-48
2022/03/25 01:36:41;;;;;;;2.22;1.40;;;;;;;22.19;25.95;100015.25;5131275;28;20138;-48
2022/03/25 01:39:06;;;;;;;2.50;1.58;;;;;;;22.23;25.99;100024.50;5129011;27;20138;-48
2022/03/25 01:41:33;;;;;;;2.00;1.38;;;;;;;22.22;25.92;100022.88;5131186;28;20039;-48
2022/03/25 01:44:01;;;;;;;2.70;1.70;;;;;;;22.22;25.92;100008.94;5131194;28;20040;-48
2022/03/25 01:46:27;;;;;;;2.40;1.70;;;;;;;22.20;25.78;100014.88;5131056;28;20529;-46
2022/03/25 01:48:53;;;;;;;2.05;1.30;;;;;;;22.22;25.81;100015.34;5130856;28;20521;-46
2022/03/25 01:51:31;;;;;;;2.13;1.30;;;;;;;22.21;26.10;100016.47;5130871;28;20051;-48
2022/03/25 01:54:07;;;;;;;2.30;1.60;;;;;;;22.21;25.88;100018.47;5130969;28;20050;-48
2022/03/25 01:56:34;;;;;;;2.22;1.40;;;;;;;22.20;26.05;100017.66;5130717;28;20483;-48
2022/03/25 01:58:59;;;;;;;2.00;1.33;;;;;;;22.19;25.98;100013.25;5130823;28;20155;-48
2022/03/25 02:01:26;;;;;;;2.20;1.40;;;;;;;22.19;25.83;100013.25;5130817;28;20047;-47
2022/03/25 02:03:51;;;;;;;2.53;1.75;;;;;;;22.16;25.79;100004.84;5130167;27;20448;-47
2022/03/25 02:06:16;;;;;;;2.92;1.90;;;;;;;22.17;25.74;100014.81;5130936;28;20495;-47
2022/03/25 02:08:42;;;;;;;2.50;1.42;;;;;;;22.19;25.73;100006.88;5130823;28;20049;-47
2022/03/25 02:11:09;;;;;;;2.25;1.63;;;;;;;22.19;25.83;100006.88;5130704;28;20162;-47
2022/03/25 02:13:34;;;;;;;2.65;1.75;;;;;;;22.21;25.93;100012.88;5130633;28;20096;-46
2022/03/25 02:16:00;;;;;;;2.53;1.70;;;;;;;22.22;26.05;100018.13;5130472;28;20047;-47
2022/03/25 02:18:26;;;;;;;2.53;1.70;;;;;;;22.22;26.09;100012.53;5130637;28;20043;-47
2022/03/25 02:20:51;;;;;;;2.88;1.73;;;;;;;22.22;26.15;100015.34;5096146;28;20508;-47
2022/03/25 02:23:17;;;;;;;2.38;1.77;;;;;;;22.20;26.01;100008.50;5130465;28;20044;-49
2022/03/25 02:25:44;;;;;;;2.15;1.50;;;;;;;22.20;25.84;100002.91;5130545;28;20039;-46
2022/03/25 02:28:09;;;;;;;2.40;1.65;;;;;;;22.21;25.86;99998.97;5130476;28;20043;-47
2022/03/25 02:30:36;;;;;;;2.75;1.70;;;;;;;22.20;26.03;100002.91;5130604;28;20082;-47
2022/03/25 02:33:04;;;;;;;2.35;1.67;;;;;;;22.23;25.96;100003.00;5130451;28;20422;-47
2022/03/25 02:35:50;;;;;;;2.13;1.50;;;;;;;22.23;25.83;100005.00;5130378;28;20054;-47
2022/03/25 02:38:18;;;;;;;2.85;1.80;;;;;;;22.26;25.80;100007.03;5130389;28;20074;-47
2022/03/25 02:40:45;;;;;;;2.42;1.70;;;;;;;22.24;25.91;100003.81;5130203;28;20503;-48
2022/03/25 02:43:11;;;;;;;3.05;1.95;;;;;;;22.24;26.06;100007.41;5130128;28;20067;-47
2022/03/25 02:45:37;;;;;;;2.80;1.65;;;;;;;22.22;26.01;99995.81;5130456;28;20055;-59
2022/03/25 02:48:04;;;;;;;2.25;1.45;;;;;;;22.23;25.85;100003.00;5130261;28;20039;-59
2022/03/25 02:50:30;;;;;;;2.83;1.85;;;;;;;22.23;25.81;100005.78;5130237;28;20104;-59
2022/03/25 02:52:56;;;;;;;2.83;1.73;;;;;;;22.23;26.10;100008.56;5130064;28;20047;-59
2022/03/25 02:55:22;;;;;;;2.35;1.60;;;;;;;22.24;26.08;100003.81;5130125;28;20089;-59
2022/03/25 02:57:47;;;;;;;2.40;1.67;;;;;;;22.26;26.00;100001.44;5130056;28;20138;-59
2022/03/25 03:00:13;;;;;;;2.88;1.65;;;;;;;22.24;26.04;99998.22;5130040;28;20070;-59
2022/03/25 03:02:39;;;;;;;2.60;1.60;;;;;;;22.24;25.91;99998.22;5130114;28;20047;-59
2022/03/25 03:05:07;;;;;;;2.65;1.77;;;;;;;22.25;25.76;100005.41;5129940;28;20039;-59
2022/03/25 03:07:35;;;;;;;2.83;1.90;;;;;;;22.24;26.00;100004.63;5130003;28;20487;-58
2022/03/25 03:10:05;;;;;;;2.65;1.73;;;;;;;22.25;25.86;99999.84;5130067;28;20407;-59
2022/03/25 03:12:32;;;;;;;2.38;1.50;;;;;;;22.23;25.75;100003.00;5130101;28;20047;-59
2022/03/25 03:14:58;;;;;;;2.63;1.70;;;;;;;22.25;25.65;100002.63;5130521;27;20047;-59
2022/03/25 03:17:24;;;;;;;2.38;1.50;;;;;;;22.25;25.91;100005.41;5133404;28;20509;-59
2022/03/25 03:19:50;;;;;;;3.00;1.58;;;;;;;22.27;25.80;100000.28;5133291;28;20126;-59
2022/03/25 03:22:17;;;;;;;2.55;1.70;;;;;;;22.27;25.82;100002.25;5133400;28;20051;-59
2022/03/25 03:24:42;;;;;;;3.20;1.33;;;;;;;22.24;26.04;100003.81;5133086;28;20047;-59
2022/03/25 03:27:08;;;;;;;2.53;1.58;;;;;;;22.26;25.62;100001.44;5133385;28;20130;-59
2022/03/25 03:29:33;;;;;;;2.75;1.77;;;;;;;22.27;25.72;100003.06;5133205;28;20447;-59
2022/03/25 03:31:59;;;;;;;2.40;1.60;;;;;;;22.25;25.67;99995.06;5133193;28;20043;-59
2022/03/25 03:34:24;;;;;;;2.40;1.60;;;;;;;22.24;25.82;100001.03;5133328;28;20550;-59
2022/03/25 03:36:50;;;;;;;2.50;1.77;;;;;;;22.28;25.78;99999.09;5133073;28;20047;-59
2022/03/25 03:39:15;;;;;;;2.75;1.77;;;;;;;22.27;25.86;100005.03;5133093;28;20533;-59
2022/03/25 03:41:40;;;;;;;3.13;1.60;;;;;;;22.27;25.91;100000.28;5133098;28;20047;-59
2022/03/25 03:44:06;;;;;;;2.28;1.50;;;;;;;22.26;25.97;100007.03;5133085;28;20054;-59
2022/03/25 03:46:33;;;;;;;3.90;1.90;;;;;;;22.25;25.67;99999.84;5133096;28;20043;-58
2022/03/25 03:48:59;;;;;;;2.65;1.67;;;;;;;22.25;26.03;99999.84;5133008;28;20423;-58
2022/03/25 03:51:24;;;;;;;2.47;1.70;;;;;;;22.23;25.64;100002.19;5132815;28;20503;-59
2022/03/25 03:53:49;;;;;;;2.50;1.80;;;;;;;22.25;26.04;100000.66;5132707;28;20062;-58
2022/03/25 03:56:15;;;;;;;2.25;1.55;;;;;;;22.24;25.89;100010.19;5132820;28;20043;-59
2022/03/25 03:58:41;;;;;;;2.75;1.80;;;;;;;22.25;26.05;100003.44;5132748;28;20050;-58
2022/03/25 04:01:06;;;;;;;3.10;1.80;;;;;;;22.25;25.72;99999.84;5132771;28;20035;-58
2022/03/25 04:03:32;;;;;;;2.63;1.63;;;;;;;22.23;25.98;100003.00;5132727;28;20043;-48
2022/03/25 04:06:00;;;;;;;2.45;1.67;;;;;;;22.24;25.97;100003.81;5132883;28;20039;-47
2022/03/25 04:08:25;;;;;;;2.17;1.50;;;;;;;22.23;25.67;100003.00;5132627;28;20047;-47
2022/03/25 04:10:52;;;;;;;2.40;1.63;;;;;;;22.22;25.69;100000.59;5132526;28;20050;-47
2022/03/25 04:13:17;;;;;;;2.95;2.00;;;;;;;22.24;25.65;99995.44;5132562;28;20047;-47
2022/03/25 04:15:43;;;;;;;2.63;1.70;;;;;;;22.24;25.63;99993.47;5132505;28;20040;-50
2022/03/25 04:18:08;;;;;;;3.03;1.80;;;;;;;22.24;25.82;100003.81;5132476;28;20039;-50
2022/03/25 04:20:34;;;;;;;2.47;1.70;;;;;;;22.25;25.74;99997.06;5132580;28;20061;-47
2022/03/25 04:23:00;;;;;;;3.08;1.92;;;;;;;22.26;25.87;100004.22;5132350;28;20054;-47
2022/03/25 04:25:25;;;;;;;2.25;1.58;;;;;;;22.25;25.90;99997.06;5132424;28;20558;-47
2022/03/25 04:27:56;;;;;;;2.65;1.90;;;;;;;22.25;25.49;99994.25;5131716;27;20047;-46
2022/03/25 04:30:26;;;;;;;2.58;1.80;;;;;;;22.27;25.53;99991.91;5132246;28;20491;-47
2022/03/25 04:32:53;;;;;;;3.00;1.90;;;;;;;22.26;25.48;99995.88;5132288;28;20483;-47
2022/03/25 04:35:20;;;;;;;2.63;1.70;;;;;;;22.25;25.50;100000.66;5132161;28;20043;-48
2022/03/25 04:37:46;;;;;;;2.67;1.58;;;;;;;22.27;25.61;100003.06;5132302;28;20493;-47
2022/03/25 04:40:17;;;;;;;3.00;1.90;;;;;;;22.25;25.49;99995.06;5132135;28;20035;-47
2022/03/25 04:42:53;;;;;;;2.95;1.90;;;;;;;22.26;25.34;100007.03;5132059;28;20089;-47
2022/03/25 04:45:19;;;;;;;2.28;1.63;;;;;;;22.27;25.53;100002.25;5132179;28;20040;-47
2022/03/25 04:47:45;;;;;;;4.82;2.00;;;;;;;22.29;25.54;100005.47;5132073;28;20051;-47
2022/03/25 04:50:12;;;;;;;2.60;1.63;;;;;;;22.27;25.53;100003.06;5132088;28;20039;-46
2022/03/25 04:52:38;;;;;;;2.47;1.67;;;;;;;22.28;25.53;100004.66;5131990;28;20051;-47
2022/03/25 04:55:04;;;;;;;3.08;1.60;;;;;;;22.28;25.24;100010.22;5131792;28;20042;-47
2022/03/25 04:57:29;;;;;;;2.63;1.60;;;;;;;22.27;25.35;100008.63;5131940;28;20043;-47
2022/03/25 04:59:55;;;;;;;2.70;1.60;;;;;;;22.27;25.62;100008.63;5131858;28;20039;-48
2022/03/25 05:02:21;;;;;;;2.20;1.50;;;;;;;22.28;25.40;100012.22;5131866;28;20138;-57
2022/03/25 05:04:47;;;;;;;2.70;1.80;;;;;;;22.25;25.38;100009.00;5131860;28;20414;-59
2022/03/25 05:07:14;;;;;;;2.33;1.67;;;;;;;22.26;25.33;100015.38;5131773;28;20045;-59
2022/03/25 05:09:39;;;;;;;2.67;1.67;;;;;;;22.23;25.21;100005.78;5131732;28;20128;-59
2022/03/25 05:12:05;;;;;;;2.88;1.85;;;;;;;22.24;25.59;100001.03;5131756;28;20073;-59
2022/03/25 05:14:30;;;;;;;2.85;1.60;;;;;;;22.24;25.24;100006.59;5131721;28;20410;-59
2022/03/25 05:16:56;;;;;;;2.63;1.65;;;;;;;22.24;25.28;100017.75;5131563;28;20043;-59
2022/03/25 05:19:22;;;;;;;2.50;1.60;;;;;;;22.22;25.46;100011.75;5131897;28;20085;-59
2022/03/25 05:21:48;;;;;;;2.47;1.63;;;;;;;22.23;25.53;100016.94;5131584;28;20137;-59
2022/03/25 05:24:13;;;;;;;2.25;1.50;;;;;;;22.23;25.63;100021.72;5131764;28;20088;-59
2022/03/25 05:26:39;;;;;;;2.83;1.70;;;;;;;22.21;25.38;100010.91;5131524;28;20042;-58
2022/03/25 05:29:05;;;;;;;2.38;1.60;;;;;;;22.22;25.44;100022.88;5131296;28;20050;-59
2022/03/25 05:31:31;;;;;;;2.60;1.70;;;;;;;22.22;25.47;100020.09;5131256;28;20571;-59
2022/03/25 05:33:56;;;;;;;3.38;1.88;;;;;;;22.22;25.55;100022.88;5131376;28;20327;-59
2022/03/25 05:36:22;;;;;;;2.88;1.90;;;;;;;22.23;25.60;100018.91;5131490;28;20397;-59
2022/03/25 05:38:48;;;;;;;2.83;1.77;;;;;;;22.22;25.62;100022.88;5130156;27;20069;-59
2022/03/25 05:41:14;;;;;;;2.40;1.60;;;;;;;22.21;25.39;100030.41;5131123;28;20395;-59
2022/03/25 05:43:40;;;;;;;3.00;1.85;;;;;;;22.21;25.34;100030.41;5131152;28;20046;-59
2022/03/25 05:46:05;;;;;;;2.33;1.70;;;;;;;22.22;25.68;100029.25;5130968;28;20047;-58
2022/03/25 05:48:31;;;;;;;2.25;1.55;;;;;;;22.25;25.31;100033.28;5131093;28;20043;-59
2022/03/25 05:50:56;;;;;;;3.08;1.80;;;;;;;22.25;25.58;100039.66;5131225;28;20051;-59
2022/03/25 05:53:22;;;;;;;2.40;1.70;;;;;;;22.25;25.29;100041.63;5130874;28;20126;-59
2022/03/25 05:55:47;;;;;;;2.47;1.60;;;;;;;22.25;25.49;100044.44;5130592;28;20053;-59
2022/03/25 05:58:13;;;;;;;2.67;1.80;;;;;;;22.25;25.69;100045.22;5130630;28;20043;-59
2022/03/25 06:00:38;;;;;;;3.00;1.90;;;;;;;22.25;25.34;100039.66;5130245;28;20042;-59
2022/03/25 06:03:05;;;;;;;2.55;1.60;;;;;;;22.25;25.46;100039.66;5130407;28;20035;-59
2022/03/25 06:05:31;;;;;;;2.80;1.70;;;;;;;22.28;25.32;100043.69;5130256;28;20039;-59
2022/03/25 06:07:56;;;;;;;2.40;1.73;;;;;;;22.29;25.37;100041.69;5130746;28;20027;-58
2022/03/25 06:10:22;;;;;;;2.40;1.60;;;;;;;22.28;25.44;100038.09;5130311;28;20047;-59
2022/03/25 06:12:47;;;;;;;2.15;1.35;;;;;;;22.29;25.43;100050.88;5130419;28;20043;-58
2022/03/25 06:15:13;;;;;;;2.92;1.85;;;;;;;22.31;25.56;100051.31;5130135;28;20043;-61
2022/03/25 06:17:46;;;;;;;2.55;1.60;;;;;;;22.28;26.07;100054.81;5130216;28;20426;-60
2022/03/25 06:20:13;;;;;;;3.45;1.70;;;;;;;22.34;25.64;100058.13;5130560;28;20039;-59
2022/03/25 06:22:42;;;;;;;3.45;1.45;;;;;;;22.34;25.68;100058.13;5130424;28;20058;-59
2022/03/25 06:25:12;;;;;;;2.50;1.70;;;;;;;22.32;25.97;100055.72;5130195;28;20047;-60
2022/03/25 06:28:07;;;;;;;2.40;1.50;;;;;;;22.33;25.95;100051.75;5130379;28;20051;-61
2022/03/25 06:30:35;;;;;;;4.75;1.60;;;;;;;22.34;26.01;100053.34;5125630;28;20040;-60
2022/03/25 06:33:02;;;;;;;2.30;1.50;;;;;;;22.33;26.04;100057.31;5126170;28;20542;-60
2022/03/25 06:35:28;;;;;;;2.63;1.73;;;;;;;22.34;26.30;100058.13;5098680;28;20066;-60
2022/03/25 06:37:55;;;;;;;4.00;1.77;;;;;;;22.33;26.30;100057.31;5130015;28;20139;-60
2022/03/25 06:40:21;;;;;;;3.55;1.80;;;;;;;22.33;25.95;100056.50;5130048;28;20039;-60
2022/03/25 06:42:47;;;;;;;2.08;1.35;;;;;;;22.37;26.01;100060.19;5129812;28;20122;-60
2022/03/25 06:45:15;;;;;;;2.90;1.80;;;;;;;22.36;26.10;100059.38;5130236;28;20141;-61
2022/03/25 06:47:40;;;;;;;2.70;1.83;;;;;;;22.37;26.13;100065.75;5130269;28;20530;-60
2022/03/25 06:50:08;;;;;;;2.88;1.95;;;;;;;22.38;26.32;100064.59;5131271;27;20130;-60
2022/03/25 06:52:34;;;;;;;2.95;1.98;;;;;;;22.38;26.11;100057.03;5133802;28;20118;-61
2022/03/25 06:54:59;;;;;;;3.53;1.85;;;;;;;22.38;26.32;100054.22;5133689;28;20039;-60
2022/03/25 06:57:25;;;;;;;2.40;1.58;;;;;;;22.38;26.31;100062.59;5133793;28;20043;-60
2022/03/25 06:59:51;;;;;;;3.05;2.03;;;;;;;22.38;26.51;100059.00;5133659;28;20450;-60
2022/03/25 07:02:16;;;;;;;3.10;2.17;;;;;;;22.39;26.27;100061.41;5133289;28;20050;-61
2022/03/25 07:04:42;;;;;;;2.58;1.73;;;;;;;22.39;26.23;100055.84;5133388;28;20058;-60
2022/03/25 07:07:09;;;;;;;2.80;1.90;;;;;;;22.37;26.33;100058.19;5133541;28;20035;-60
2022/03/25 07:09:35;;;;;;;2.60;1.92;;;;;;;22.38;26.39;100051.44;5133741;28;20531;-61
2022/03/25 07:12:02;;;;;;;3.40;1.90;;;;;;;22.39;26.26;100058.63;5132235;28;20039;-53
2022/03/25 07:14:27;;;;;;;2.95;1.90;;;;;;;22.40;26.38;100051.88;5133144;28;20050;-48
2022/03/25 07:16:55;;;;;;;3.05;2.05;;;;;;;22.39;26.56;100055.84;5132598;28;20047;-49
2022/03/25 07:19:25;;;;;;;2.83;1.95;;;;;;;22.39;26.35;100044.69;5133228;28;20039;-49
2022/03/25 07:21:54;;;;;;;3.20;2.00;;;;;;;22.39;26.31;100053.06;5133605;28;20078;-49
2022/03/25 07:24:20;;;;;;;2.53;1.90;;;;;;;22.40;26.60;100053.84;5133124;28;20043;-47
2022/03/25 07:26:45;;;;;;;3.00;1.88;;;;;;;22.39;26.52;100050.28;5133209;28;20050;-49
2022/03/25 07:29:11;;;;;;;3.42;2.05;;;;;;;22.38;26.37;100045.06;5133233;28;20035;-48
2022/03/25 07:31:37;;;;;;;2.60;1.75;;;;;;;22.37;26.25;100049.84;5133297;28;20039;-50
2022/03/25 07:34:03;;;;;;;2.88;1.83;;;;;;;22.35;26.33;100043.81;5132864;28;20046;-49
2022/03/25 07:36:28;;;;;;;4.00;2.28;;;;;;;22.35;26.61;100052.16;5131833;28;20050;-49
2022/03/25 07:38:54;;;;;;;5.35;1.90;;;;;;;22.36;26.46;100044.63;5123339;28;20052;-52
2022/03/25 07:41:21;;;;;;;3.45;2.05;;;;;;;22.35;26.49;100043.00;5132526;28;20047;-55
2022/03/25 07:43:46;;;;;;;3.40;2.10;;;;;;;22.33;26.59;100048.16;5123999;28;20655;-52
2022/03/25 07:46:13;;;;;;;3.60;2.28;;;;;;;22.32;26.75;100043.75;5120792;28;20035;-49
2022/03/25 07:48:39;;;;;;;4.30;1.95;;;;;;;22.29;26.60;100039.75;5128953;28;20597;-51
2022/03/25 07:51:04;;;;;;;3.05;1.77;;;;;;;22.26;26.82;100040.47;5119838;28;20063;-52
2022/03/25 07:53:32;;;;;;;2.75;1.88;;;;;;;22.24;26.83;100031.69;5131425;28;20096;-50
2022/03/25 07:55:58;;;;;;;3.05;2.10;;;;;;;22.23;26.79;100038.44;5113737;27;20519;-50
2022/03/25 07:58:24;;;;;;;3.38;1.80;;;;;;;22.23;26.84;100038.44;5124806;28;20035;-53
2022/03/25 08:00:50;;;;;;;3.13;2.00;;;;;;;22.21;26.82;100035.19;5116911;27;20059;-52
2022/03/25 08:03:16;;;;;;;2.53;1.90;;;;;;;22.18;26.98;100025.59;5122002;27;20447;-54
2022/03/25 08:05:43;;;;;;;2.90;1.90;;;;;;;22.17;26.90;100032.34;5121624;28;20050;-61
2022/03/25 08:08:09;;;;;;;3.20;2.10;;;;;;;22.21;27.15;100027.63;5125849;28;20046;-57
2022/03/25 08:10:36;;;;;;;3.70;2.20;;;;;;;22.19;27.28;100027.19;5097137;27;20074;-58
2022/03/25 08:13:02;;;;;;;3.70;2.03;;;;;;;22.16;27.53;100024.34;5094042;28;20040;-57
2022/03/25 08:15:34;;;;;;;3.53;2.00;;;;;;;22.16;27.44;100025.16;5101947;27;20139;-58
2022/03/25 08:18:03;;;;;;;2.83;1.90;;;;;;;22.17;27.33;100023.19;5104308;28;20051;-56
2022/03/25 08:20:39;;;;;;;3.45;2.22;;;;;;;22.16;27.62;100018.78;5103561;28;20054;-57
2022/03/25 08:23:13;;;;;;;3.47;2.22;;;;;;;22.15;27.28;100020.78;5105295;28;20479;-57
2022/03/25 08:28:25;;;;;;;3.30;2.13;;;;;;;22.18;28.01;100022.00;5104682;28;20488;-60
2022/03/25 08:30:51;;;;;;;4.05;2.25;;;;;;;22.17;28.03;100023.97;5100795;27;20100;-59
2022/03/25 08:33:18;;;;;;;5.28;1.95;;;;;;;22.14;28.15;100019.13;5105561;28;20058;-60
2022/03/25 08:35:44;;;;;;;3.30;2.30;;;;;;;22.13;28.14;100022.28;5105382;28;20054;-59
2022/03/25 08:38:11;;;;;;;5.03;2.20;;;;;;;22.09;28.15;100019.47;5083719;28;20044;-58
2022/03/25 08:40:38;;;;;;;3.63;2.33;;;;;;;22.08;27.97;100022.59;5099324;27;20058;-58
2022/03/25 08:43:05;;;;;;;3.95;2.60;;;;;;;22.06;27.88;100022.94;5097426;27;20052;-63
2022/03/25 08:45:33;;;;;;;3.20;2.05;;;;;;;22.05;28.07;100015.75;5106465;27;20071;-58
2022/03/25 08:47:59;;;;;;;3.20;2.05;;;;;;;22.03;28.36;100014.53;5104465;28;20060;-65
2022/03/25 08:50:26;;;;;;;4.80;2.38;;;;;;;22.04;28.48;100021.69;5105762;28;20042;-61
2022/03/25 08:52:53;;;;;;;3.13;2.13;;;;;;;22.03;28.58;100012.53;5099600;28;20070;-62
2022/03/25 08:55:20;;;;;;;3.35;2.10;;;;;;;22.00;28.57;100010.47;5108416;28;20127;-60
2022/03/25 08:57:47;;;;;;;3.95;2.10;;;;;;;21.98;28.55;100005.28;5105162;28;20136;-58
2022/03/25 09:00:15;;;;;;;3.13;1.90;;;;;;;22.02;28.84;100010.13;5097595;28;20154;-59
2022/03/25 09:02:44;;;;;;;3.13;1.95;;;;;;;22.00;28.82;100010.47;5101291;28;20058;-58
2022/03/25 09:05:11;;;;;;;3.53;2.33;;;;;;;21.98;28.59;100007.25;5101540;27;20051;-59
2022/03/25 09:07:37;;;;;;;6.20;2.40;;;;;;;21.98;28.78;100010.84;5101034;28;20036;-61
2022/03/25 09:10:07;;;;;;;3.95;2.20;;;;;;;21.98;28.53;100010.03;5098506;27;20078;-59
2022/03/25 09:12:33;;;;;;;3.10;2.10;;;;;;;21.97;28.68;100006.44;5108199;27;20043;-58
2022/03/25 09:15:00;;;;;;;2.97;2.08;;;;;;;21.94;28.87;99996.06;5112749;27;20043;-58
2022/03/25 09:17:25;;;;;;;3.05;1.90;;;;;;;21.92;28.69;99998.38;5114146;27;20511;-58
2022/03/25 09:19:51;;;;;;;3.80;2.10;;;;;;;21.94;28.95;100000.81;5108946;27;20082;-60
2022/03/25 09:22:16;;;;;;;3.08;2.20;;;;;;;21.91;28.64;99995.97;5112675;27;20418;-58
2022/03/25 09:24:42;;;;;;;3.63;2.20;;;;;;;21.93;28.62;99996.41;5096807;27;20438;-61
2022/03/25 09:27:09;;;;;;;4.53;1.92;;;;;;;21.92;28.88;99986.44;5102199;27;20540;-55
2022/03/25 09:29:35;;;;;;;4.43;2.40;;;;;;;21.91;28.68;99991.22;5104185;27;20055;-55
2022/03/25 09:32:00;;;;;;;2.85;1.98;;;;;;;21.91;28.63;99988.44;5104496;27;20047;-54
2022/03/25 09:37:10;;;;;;;3.47;2.17;;;;;;;21.91;28.41;99974.50;5102541;28;20054;-56
2022/03/25 09:39:36;;;;;;;6.70;1.92;;;;;;;21.91;28.63;99976.47;5102048;28;20052;-53
2022/03/25 09:42:05;;;;;;;6.63;1.95;;;;;;;21.94;28.37;99975.75;5103849;27;20062;-56
2022/03/25 09:44:31;;;;;;;3.95;2.03;;;;;;;21.91;28.29;99971.72;5101692;27;20578;-55
2022/03/25 09:46:57;;;;;;;3.55;2.08;;;;;;;21.91;28.58;99971.72;5102964;27;20958;-54
2022/03/25 09:49:22;;;;;;;2.53;1.70;;;;;;;21.91;28.24;99968.94;5106246;27;20499;-56
2022/03/25 09:51:48;;;;;;;3.40;2.20;;;;;;;21.91;28.28;99962.56;5101051;27;20509;-54
2022/03/25 09:54:15;;;;;;;4.82;2.47;;;;;;;21.91;28.53;99957.78;5100968;27;20050;-54
2022/03/25 09:56:41;;;;;;;3.35;2.13;;;;;;;21.94;28.73;99951.50;5099089;27;20065;-54
2022/03/25 09:59:07;;;;;;;3.15;2.03;;;;;;;21.96;28.62;99954.72;5102430;27;20054;-55
2022/03/25 10:01:33;;;;;;;3.45;2.25;;;;;;;21.98;28.58;99945.97;5100313;27;20831;-54
2022/03/25 10:04:00;;;;;;;3.75;2.17;;;;;;;21.97;28.85;99944.38;5098236;28;20063;-57
2022/03/25 10:06:26;;;;;;;3.83;2.25;;;;;;;21.98;28.70;99940.41;5100360;27;20853;-58
2022/03/25 10:08:57;;;;;;;2.92;2.00;;;;;;;21.99;28.70;99930.88;5102957;27;20047;-55
2022/03/25 10:11:30;;;;;;;3.65;2.08;;;;;;;22.02;28.35;99935.72;5107399;27;20052;-54
2022/03/25 10:14:28;;;;;;;3.20;2.20;;;;;;;22.05;29.06;99936.94;5100001;27;20070;-54
2022/03/25 10:16:55;;;;;;;3.30;2.20;;;;;;;22.09;28.56;99924.72;5096004;27;20058;-57
2022/03/25 10:19:25;;;;;;;3.20;2.13;;;;;;;22.08;28.42;99925.09;5103633;28;20130;-58
2022/03/25 10:21:59;;;;;;;3.30;2.10;;;;;;;22.10;28.19;99919.97;5098614;27;20545;-57
2022/03/25 10:24:46;;;;;;;7.28;2.10;;;;;;;22.06;28.32;99922.63;5093594;27;20722;-58
2022/03/25 10:27:13;;;;;;;3.90;2.00;;;;;;;22.08;28.72;99909.19;5095161;27;20054;-58
2022/03/25 10:29:38;;;;;;;3.42;2.10;;;;;;;22.16;28.51;99910.13;5105840;28;20096;-59
2022/03/25 10:32:08;;;;;;;5.97;2.80;;;;;;;22.15;28.12;99902.94;5105104;27;20035;-56
2022/03/25 10:34:38;;;;;;;8.30;4.78;;;;;;;22.18;27.83;99904.97;5097587;27;20133;-57
2022/03/25 10:37:07;;;;;;;6.10;4.30;;;;;;;22.15;28.18;99900.16;5099871;27;20532;-58
2022/03/25 10:39:33;;;;;;;9.30;4.28;;;;;;;22.11;27.61;99900.09;5109067;27;20421;-57
2022/03/25 10:42:02;;;;;;;7.85;3.72;;;;;;;22.03;27.82;99895.53;5116579;27;20051;-58
2022/03/25 10:44:42;;;;;;;5.32;3.35;;;;;;;22.06;28.06;99897.56;5114217;27;20054;-57
2022/03/25 10:47:15;;;;;;;8.68;3.53;;;;;;;22.16;27.96;99891.44;5107818;27;20542;-57
2022/03/25 10:49:46;;;;;;;7.78;3.20;;;;;;;22.14;27.69;99893.75;5113504;27;20573;-57
2022/03/25 10:52:32;;;;;;;9.77;3.60;;;;;;;22.11;27.90;99888.13;5107665;27;20050;-58
2022/03/25 10:55:20;;;;;;;5.35;3.17;;;;;;;22.15;27.88;99889.81;5118290;28;20051;-59
2022/03/25 10:57:49;;;;;;;4.53;2.85;;;;;;;22.13;27.92;99885.78;5114591;28;20062;-58
2022/03/25 11:00:15;;;;;;;5.35;2.70;;;;;;;22.11;27.78;99877.00;5116150;28;20043;-58
2022/03/25 11:02:41;;;;;;;3.55;2.30;;;;;;;22.19;28.07;99884.28;5112950;27;20050;-58
2022/03/25 11:05:09;;;;;;;4.53;2.72;;;;;;;22.22;28.14;99873.22;5117285;28;20051;-56
2022/03/25 11:07:40;;;;;;;3.97;2.45;;;;;;;22.30;27.95;99876.94;5110061;28;20467;-57
2022/03/25 11:10:05;;;;;;;10.95;2.58;;;;;;;22.59;27.66;99863.41;5114795;28;20062;-57
2022/03/25 11:12:31;;;;;;;10.63;2.55;;;;;;;22.73;27.61;99866.41;5119999;28;20156;-58
2022/03/25 11:14:59;;;;;;;13.15;2.88;;;;;;;22.85;27.30;99863.38;5122820;28;20047;-58
2022/03/25 11:17:26;;;;;;;14.80;2.95;;;;;;;22.96;27.18;99866.34;5123038;28;20067;-57
2022/03/25 11:19:53;;;;;;;18.10;3.10;;;;;;;22.89;27.60;99855.91;5127535;28;20494;-57
2022/03/25 11:22:22;;;;;;;24.88;3.90;;;;;;;22.99;27.29;99849.66;5119502;28;20118;-56
2022/03/25 11:24:52;;;;;;;15.82;3.30;;;;;;;23.04;27.24;99845.72;5110016;28;20048;-57
2022/03/25 11:27:23;;;;;;;24.58;4.38;;;;;;;22.98;26.97;99842.47;5108525;28;20047;-57
2022/03/25 11:29:53;;;;;;;16.73;3.50;;;;;;;22.89;27.28;99836.38;5108913;28;20583;-57
2022/03/25 11:32:19;;;;;;;20.13;4.28;;;;;;;22.92;26.93;99837.59;5108830;28;20051;-57